createdAt,value
2017-03-18T00:00:21.283Z,10.77
2017-03-18T00:00:43.565Z,10.81
2017-03-18T00:01:05.378Z,10.80
2017-03-18T00:01:31.946Z,10.82
2017-03-18T00:01:53.812Z,10.82
2017-03-18T00:02:56.333Z,10.81
2017-03-18T00:03:18.151Z,10.83
2017-03-18T00:03:39.868Z,10.84
2017-03-18T00:04:11.128Z,10.82
2017-03-18T00:04:32.940Z,10.74
2017-03-18T00:05:04.205Z,10.77
2017-03-18T00:05:35.467Z,10.77
2017-03-18T00:05:57.293Z,10.78
2017-03-18T00:06:33.337Z,10.76
2017-03-18T00:06:55.643Z,10.81
2017-03-18T00:07:17.442Z,10.80
2017-03-18T00:07:39.177Z,10.77
2017-03-18T00:08:05.673Z,10.75
2017-03-18T00:08:27.472Z,10.75
2017-03-18T00:09:03.505Z,10.80
2017-03-18T00:09:30.646Z,10.88
2017-03-18T00:09:52.368Z,10.86
2017-03-18T00:10:59.685Z,10.86
2017-03-18T00:11:21.523Z,10.83
2017-03-18T00:11:43.247Z,10.82
2017-03-18T00:12:14.509Z,10.84
2017-03-18T00:12:36.332Z,10.82
2017-03-18T00:13:02.831Z,10.76
2017-03-18T00:13:24.538Z,10.81
2017-03-18T00:13:51.013Z,10.85
2017-03-18T00:14:12.834Z,10.85
2017-03-18T00:14:34.646Z,10.81
2017-03-18T00:15:01.209Z,10.73
2017-03-18T00:15:22.930Z,10.72
2017-03-18T00:15:44.754Z,10.69
2017-03-18T00:16:11.235Z,10.68
2017-03-18T00:16:32.957Z,10.70
2017-03-18T00:17:04.292Z,10.77
2017-03-18T00:17:26.034Z,10.77
2017-03-18T00:17:57.299Z,10.76
2017-03-18T00:18:19.130Z,10.82
2017-03-18T00:18:50.398Z,10.84
2017-03-18T00:19:12.128Z,10.82
2017-03-18T00:19:38.734Z,10.78
2017-03-18T00:20:00.459Z,10.80
2017-03-18T00:20:26.949Z,10.77
2017-03-18T00:20:48.759Z,10.78
2017-03-18T00:21:15.227Z,10.79
2017-03-18T00:21:36.947Z,10.74
2017-03-18T00:22:03.525Z,10.75
2017-03-18T00:22:25.251Z,10.77
2017-03-18T00:22:51.742Z,10.78
2017-03-18T00:23:13.577Z,10.75
2017-03-18T00:23:40.053Z,10.78
2017-03-18T00:24:06.541Z,10.81
2017-03-18T00:24:28.387Z,10.79
2017-03-18T00:24:59.660Z,10.80
2017-03-18T00:25:21.376Z,10.80
2017-03-18T00:25:52.720Z,10.84
2017-03-18T00:26:14.473Z,10.80
2017-03-18T00:27:17.077Z,10.74
2017-03-18T00:27:38.783Z,10.75
2017-03-18T00:28:00.487Z,10.77
2017-03-18T00:28:36.525Z,10.78
2017-03-18T00:28:58.911Z,10.79
2017-03-18T00:29:20.672Z,10.78
2017-03-18T00:29:42.431Z,10.79
2017-03-18T00:30:08.986Z,10.82
2017-03-18T00:30:30.701Z,10.80
2017-03-18T00:31:01.942Z,10.77
2017-03-18T00:31:23.750Z,10.77
2017-03-18T00:31:54.999Z,10.77
2017-03-18T00:32:16.735Z,10.75
2017-03-18T00:32:47.993Z,10.76
2017-03-18T00:33:14.498Z,10.74
2017-03-18T00:34:45.698Z,10.72
2017-03-18T00:35:07.409Z,10.70
2017-03-18T00:36:09.997Z,10.70
2017-03-18T00:36:31.800Z,10.68
2017-03-18T00:36:53.607Z,10.66
2017-03-18T00:37:20.179Z,10.67
2017-03-18T00:37:41.888Z,10.66
2017-03-18T00:38:13.139Z,10.63
2017-03-18T00:38:34.959Z,10.66
2017-03-18T00:38:56.666Z,10.66
2017-03-18T00:39:21.082Z,10.65
2017-03-18T00:39:42.809Z,10.66
2017-03-18T00:40:04.661Z,10.64
2017-03-18T00:40:26.391Z,10.67
2017-03-18T00:40:48.076Z,10.66
2017-03-18T00:41:09.769Z,10.64
2017-03-18T00:41:41.040Z,10.64
2017-03-18T00:42:02.733Z,10.68
2017-03-18T00:42:24.444Z,10.60
2017-03-18T00:42:50.924Z,10.58
2017-03-18T00:43:12.750Z,10.59
2017-03-18T00:43:34.461Z,10.62
2017-03-18T00:44:05.713Z,10.63
2017-03-18T00:44:27.509Z,10.63
2017-03-18T00:45:30.655Z,10.59
2017-03-18T00:45:52.475Z,10.57
2017-03-18T00:46:14.179Z,10.53
2017-03-18T00:46:40.644Z,10.55
2017-03-18T00:47:02.350Z,10.53
2017-03-18T00:47:33.621Z,10.57
2017-03-18T00:47:55.315Z,10.54
2017-03-18T00:48:26.588Z,10.56
2017-03-18T00:48:48.396Z,10.58
2017-03-18T00:49:19.643Z,10.59
2017-03-18T00:49:41.342Z,10.57
2017-03-18T00:50:07.924Z,10.53
2017-03-18T00:50:29.650Z,10.54
2017-03-18T00:50:51.352Z,10.54
2017-03-18T00:51:17.951Z,10.51
2017-03-18T00:51:39.670Z,10.52
2017-03-18T00:52:06.149Z,10.55
2017-03-18T00:52:27.848Z,10.51
2017-03-18T00:52:49.640Z,10.53
2017-03-18T00:53:11.350Z,10.51
2017-03-18T00:53:33.050Z,10.51
2017-03-18T00:53:54.782Z,10.51
2017-03-18T00:54:16.586Z,10.51
2017-03-18T00:54:38.302Z,10.52
2017-03-18T00:55:00.011Z,10.53
2017-03-18T00:55:26.577Z,10.54
2017-03-18T00:55:48.275Z,10.53
2017-03-18T00:56:09.969Z,10.53
2017-03-18T00:56:41.301Z,10.52
2017-03-18T00:57:03.017Z,10.52
2017-03-18T00:57:39.061Z,10.50
2017-03-18T00:58:06.154Z,10.54
2017-03-18T00:58:37.402Z,10.52
2017-03-18T00:58:59.134Z,10.45
2017-03-18T00:59:25.680Z,10.45
2017-03-18T00:59:47.382Z,10.48
2017-03-18T01:00:09.101Z,10.50
2017-03-18T01:00:40.424Z,10.49
2017-03-18T01:01:02.133Z,10.55
2017-03-18T01:01:33.365Z,10.60
2017-03-18T01:01:55.144Z,10.62
2017-03-18T01:02:26.391Z,10.57
2017-03-18T01:02:48.102Z,10.61
2017-03-18T01:03:19.463Z,10.61
2017-03-18T01:03:41.165Z,10.58
2017-03-18T01:04:12.437Z,10.51
2017-03-18T01:04:34.233Z,10.52
2017-03-18T01:04:55.942Z,10.49
2017-03-18T01:05:17.649Z,10.47
2017-03-18T01:05:39.348Z,10.45
2017-03-18T01:06:01.143Z,10.46
2017-03-18T01:06:32.405Z,10.48
2017-03-18T01:06:54.156Z,10.46
2017-03-18T01:07:15.967Z,10.39
2017-03-18T01:07:47.215Z,10.37
2017-03-18T01:08:08.953Z,10.35
2017-03-18T01:08:44.979Z,10.41
2017-03-18T01:09:12.134Z,10.36
2017-03-18T01:09:33.842Z,10.32
2017-03-18T01:10:09.883Z,10.32
2017-03-18T01:10:32.250Z,10.34
2017-03-18T01:10:53.953Z,10.37
2017-03-18T01:11:25.311Z,10.30
2017-03-18T01:11:51.785Z,10.30
2017-03-18T01:12:13.493Z,10.32
2017-03-18T01:12:44.748Z,10.26
2017-03-18T01:13:06.453Z,10.26
2017-03-18T01:13:28.166Z,10.26
2017-03-18T01:13:59.428Z,10.18
2017-03-18T01:14:21.160Z,10.25
2017-03-18T01:14:42.851Z,10.25
2017-03-18T01:15:09.341Z,10.18
2017-03-18T01:15:31.159Z,10.20
2017-03-18T01:15:57.671Z,10.13
2017-03-18T01:16:19.377Z,10.17
2017-03-18T01:16:41.185Z,10.16
2017-03-18T01:17:02.891Z,10.13
2017-03-18T01:17:24.629Z,10.15
2017-03-18T01:17:46.338Z,10.18
2017-03-18T01:18:12.922Z,10.23
2017-03-18T01:18:34.616Z,10.19
2017-03-18T01:19:01.093Z,10.10
2017-03-18T01:19:22.791Z,10.11
2017-03-18T01:19:49.385Z,10.05
2017-03-18T01:20:11.077Z,10.05
2017-03-18T01:20:32.770Z,10.06
2017-03-18T01:20:54.469Z,10.04
2017-03-18T01:21:16.159Z,10.08
2017-03-18T01:21:37.861Z,10.06
2017-03-18T01:22:04.339Z,10.08
2017-03-18T01:22:26.181Z,10.02
2017-03-18T01:22:52.651Z,10.05
2017-03-18T01:23:14.361Z,10.04
2017-03-18T01:23:36.048Z,10.03
2017-03-18T01:23:57.841Z,10.07
2017-03-18T01:24:33.868Z,10.07
2017-03-18T01:24:56.146Z,10.06
2017-03-18T01:25:17.930Z,10.07
2017-03-18T01:25:44.423Z,10.07
2017-03-18T01:26:06.141Z,10.05
2017-03-18T01:26:27.836Z,10.02
2017-03-18T01:26:54.363Z,10.03
2017-03-18T01:27:16.060Z,10.06
2017-03-18T01:27:42.537Z,10.12
2017-03-18T01:28:04.250Z,10.10
2017-03-18T01:28:30.826Z,10.02
2017-03-18T01:28:52.538Z,10.05
2017-03-18T01:29:19.015Z,10.08
2017-03-18T01:29:40.722Z,10.06
2017-03-18T01:30:02.505Z,10.07
2017-03-18T01:30:33.766Z,10.03
2017-03-18T01:30:55.496Z,9.98
2017-03-18T01:31:17.278Z,9.97
2017-03-18T01:31:43.751Z,9.95
2017-03-18T01:32:05.454Z,10.00
2017-03-18T01:33:08.058Z,10.05
2017-03-18T01:33:29.769Z,9.96
2017-03-18T01:34:01.035Z,9.96
2017-03-18T01:34:22.745Z,9.94
2017-03-18T01:34:44.446Z,9.98
2017-03-18T01:35:10.919Z,10.01
2017-03-18T01:35:32.708Z,10.00
2017-03-18T01:35:59.180Z,9.95
2017-03-18T01:36:20.873Z,9.94
2017-03-18T01:36:42.660Z,9.93
2017-03-18T01:37:13.916Z,9.95
2017-03-18T01:37:35.662Z,9.96
2017-03-18T01:37:57.477Z,9.98
2017-03-18T01:38:23.960Z,10.03
2017-03-18T01:38:45.662Z,9.97
2017-03-18T01:39:07.355Z,9.99
2017-03-18T01:39:38.611Z,9.94
2017-03-18T01:40:00.330Z,9.96
2017-03-18T01:40:22.050Z,9.94
2017-03-18T01:40:43.749Z,9.93
2017-03-18T01:41:05.578Z,9.94
2017-03-18T01:41:32.073Z,9.96
2017-03-18T01:41:53.790Z,9.94
2017-03-18T01:42:20.297Z,9.94
2017-03-18T01:42:41.999Z,9.94
2017-03-18T01:43:18.045Z,9.95
2017-03-18T01:43:40.430Z,9.95
2017-03-18T01:44:52.579Z,9.98
2017-03-18T01:45:14.284Z,9.98
2017-03-18T01:45:35.976Z,9.95
2017-03-18T01:46:07.309Z,9.93
2017-03-18T01:46:29.043Z,9.94
2017-03-18T01:46:50.751Z,9.94
2017-03-18T01:47:22.095Z,9.92
2017-03-18T01:47:43.806Z,9.91
2017-03-18T01:48:51.174Z,9.86
2017-03-18T01:49:15.805Z,9.92
2017-03-18T01:49:37.853Z,9.91
2017-03-18T01:49:59.605Z,9.86
2017-03-18T01:50:21.313Z,9.83
2017-03-18T01:50:43.101Z,9.87
2017-03-18T01:51:09.665Z,9.87
2017-03-18T01:51:31.563Z,9.81
2017-03-18T01:51:53.272Z,9.86
2017-03-18T01:52:15.227Z,9.83
2017-03-18T01:52:37.074Z,9.88
2017-03-18T01:52:59.461Z,9.90
2017-03-18T01:53:21.249Z,9.92
2017-03-18T01:53:43.442Z,9.90
2017-03-18T01:54:05.491Z,9.85
2017-03-18T01:54:27.497Z,9.84
2017-03-18T01:54:49.510Z,9.85
2017-03-18T01:55:11.359Z,9.85
2017-03-18T01:55:35.483Z,9.81
2017-03-18T01:55:57.324Z,9.84
2017-03-18T01:56:19.279Z,9.82
2017-03-18T01:56:41.470Z,9.81
2017-03-18T01:57:03.342Z,9.84
2017-03-18T01:57:25.530Z,9.88
2017-03-18T01:57:47.295Z,9.85
2017-03-18T01:58:09.100Z,9.82
2017-03-18T01:58:31.347Z,9.80
2017-03-18T01:58:53.408Z,9.82
2017-03-18T01:59:15.363Z,9.82
2017-03-18T01:59:37.221Z,9.82
2017-03-18T01:59:59.190Z,9.80
2017-03-18T02:00:21.013Z,9.85
2017-03-18T02:00:47.734Z,9.93
2017-03-18T02:01:09.431Z,9.83
2017-03-18T02:01:31.178Z,9.84
2017-03-18T02:01:57.763Z,9.81
2017-03-18T02:02:19.660Z,9.81
2017-03-18T02:02:42.651Z,9.80
2017-03-18T02:03:05.198Z,9.71
2017-03-18T02:03:27.874Z,9.73
2017-03-18T02:03:49.816Z,9.74
2017-03-18T02:04:11.652Z,9.74
2017-03-18T02:04:33.414Z,9.75
2017-03-18T02:04:55.608Z,9.69
2017-03-18T02:05:17.303Z,9.73
2017-03-18T02:05:39.025Z,9.75
2017-03-18T02:06:00.761Z,9.75
2017-03-18T02:06:22.757Z,9.75
2017-03-18T02:06:44.521Z,9.74
2017-03-18T02:07:06.230Z,9.76
2017-03-18T02:07:28.161Z,9.75
2017-03-18T02:07:52.797Z,9.67
2017-03-18T02:08:14.549Z,9.66
2017-03-18T02:08:36.616Z,9.63
2017-03-18T02:08:58.379Z,9.71
2017-03-18T02:09:20.150Z,9.77
2017-03-18T02:09:41.883Z,9.78
2017-03-18T02:10:03.665Z,9.75
2017-03-18T02:10:25.359Z,9.70
2017-03-18T02:10:47.275Z,9.69
2017-03-18T02:11:09.416Z,9.70
2017-03-18T02:11:31.249Z,9.70
2017-03-18T02:11:53.823Z,9.66
2017-03-18T02:12:15.590Z,9.71
2017-03-18T02:12:37.465Z,9.69
2017-03-18T02:12:59.172Z,9.61
2017-03-18T02:13:21.089Z,9.63
2017-03-18T02:13:43.740Z,9.68
2017-03-18T02:14:05.475Z,9.72
2017-03-18T02:14:27.393Z,9.70
2017-03-18T02:14:49.225Z,9.67
2017-03-18T02:15:10.984Z,9.64
2017-03-18T02:15:33.325Z,9.64
2017-03-18T02:15:55.208Z,9.62
2017-03-18T02:16:17.201Z,9.62
2017-03-18T02:16:39.394Z,9.58
2017-03-18T02:17:01.154Z,9.61
2017-03-18T02:17:23.030Z,9.61
2017-03-18T02:17:45.100Z,9.58
2017-03-18T02:18:06.852Z,9.59
2017-03-18T02:18:38.000Z,9.63
2017-03-18T02:18:59.699Z,9.64
2017-03-18T02:19:21.774Z,9.63
2017-03-18T02:19:43.525Z,9.61
2017-03-18T02:20:05.319Z,9.59
2017-03-18T02:20:27.092Z,9.61
2017-03-18T02:20:49.014Z,9.54
2017-03-18T02:21:11.152Z,9.49
2017-03-18T02:21:32.874Z,9.54
2017-03-18T02:21:55.610Z,9.50
2017-03-18T02:22:17.845Z,9.47
2017-03-18T02:22:39.688Z,9.46
2017-03-18T02:23:01.836Z,9.51
2017-03-18T02:23:23.653Z,9.47
2017-03-18T02:24:12.595Z,9.44
2017-03-18T02:24:34.322Z,9.47
2017-03-18T02:24:56.435Z,9.45
2017-03-18T02:25:32.483Z,9.41
2017-03-18T02:25:54.857Z,9.43
2017-03-18T02:26:16.915Z,9.47
2017-03-18T02:26:38.945Z,9.45
2017-03-18T02:27:10.191Z,9.44
2017-03-18T02:27:41.600Z,9.50
2017-03-18T02:28:03.648Z,9.52
2017-03-18T02:28:25.695Z,9.52
2017-03-18T02:28:47.575Z,9.53
2017-03-18T02:29:09.552Z,9.50
2017-03-18T02:29:31.672Z,9.52
2017-03-18T02:29:53.714Z,9.50
2017-03-18T02:30:15.415Z,9.47
2017-03-18T02:30:37.179Z,9.55
2017-03-18T02:30:59.638Z,9.49
2017-03-18T02:31:22.393Z,9.49
2017-03-18T02:31:44.562Z,9.48
2017-03-18T02:32:06.239Z,9.49
2017-03-18T02:32:28.126Z,9.49
2017-03-18T02:32:50.066Z,9.50
2017-03-18T02:33:12.307Z,9.49
2017-03-18T02:33:34.236Z,9.48
2017-03-18T02:33:56.304Z,9.50
2017-03-18T02:34:18.227Z,9.54
2017-03-18T02:35:20.761Z,9.45
2017-03-18T02:35:42.936Z,9.48
2017-03-18T02:36:04.683Z,9.51
2017-03-18T02:36:29.253Z,9.53
2017-03-18T02:36:51.194Z,9.52
2017-03-18T02:37:13.385Z,9.53
2017-03-18T02:37:35.516Z,9.52
2017-03-18T02:37:57.236Z,9.43
2017-03-18T02:38:19.148Z,9.42
2017-03-18T02:38:40.880Z,9.44
2017-03-18T02:39:02.680Z,9.49
2017-03-18T02:39:33.905Z,9.53
2017-03-18T02:39:55.742Z,9.52
2017-03-18T02:40:17.930Z,9.55
2017-03-18T02:40:40.333Z,9.55
2017-03-18T02:41:02.246Z,9.54
2017-03-18T02:41:24.196Z,9.50
2017-03-18T02:41:46.236Z,9.52
2017-03-18T02:42:07.937Z,9.50
2017-03-18T02:42:30.353Z,9.48
2017-03-18T02:42:52.598Z,9.52
2017-03-18T02:43:14.767Z,9.51
2017-03-18T02:43:36.579Z,9.48
2017-03-18T02:43:58.264Z,9.48
2017-03-18T02:44:20.469Z,9.52
2017-03-18T02:44:42.208Z,9.54
2017-03-18T02:45:04.414Z,9.49
2017-03-18T02:45:40.492Z,9.49
2017-03-18T02:46:17.153Z,9.52
2017-03-18T02:46:39.469Z,9.50
2017-03-18T02:47:01.239Z,9.47
2017-03-18T02:47:23.386Z,9.45
2017-03-18T02:47:46.091Z,9.47
2017-03-18T02:48:07.839Z,9.54
2017-03-18T02:48:29.710Z,9.53
2017-03-18T02:48:51.537Z,9.51
2017-03-18T02:49:13.510Z,9.58
2017-03-18T02:49:35.287Z,9.55
2017-03-18T02:49:56.997Z,9.45
2017-03-18T02:50:18.883Z,9.45
2017-03-18T02:50:40.835Z,9.38
2017-03-18T02:51:02.531Z,9.43
2017-03-18T02:51:25.317Z,9.42
2017-03-18T02:51:47.028Z,9.45
2017-03-18T02:52:08.773Z,9.48
2017-03-18T02:52:30.627Z,9.50
2017-03-18T02:52:52.962Z,9.52
2017-03-18T02:53:15.069Z,9.54
2017-03-18T02:54:17.630Z,9.48
2017-03-18T02:54:39.411Z,9.53
2017-03-18T02:55:01.294Z,9.56
2017-03-18T02:55:28.005Z,9.52
2017-03-18T02:55:50.076Z,9.50
2017-03-18T02:56:11.909Z,9.55
2017-03-18T02:56:33.698Z,9.57
2017-03-18T02:56:55.838Z,9.55
2017-03-18T02:57:17.710Z,9.54
2017-03-18T02:57:39.444Z,9.50
2017-03-18T02:58:01.714Z,9.46
2017-03-18T02:58:23.482Z,9.45
2017-03-18T02:58:45.197Z,9.46
2017-03-18T02:59:16.464Z,9.52
2017-03-18T02:59:38.190Z,9.55
2017-03-18T03:00:00.201Z,9.53
2017-03-18T03:00:22.448Z,9.55
2017-03-18T03:00:44.357Z,9.58
2017-03-18T03:01:06.085Z,9.57
2017-03-18T03:01:27.815Z,9.58
2017-03-18T03:01:49.530Z,9.52
2017-03-18T03:02:11.358Z,9.52
2017-03-18T03:02:33.096Z,9.47
2017-03-18T03:02:54.823Z,9.49
2017-03-18T03:03:16.597Z,9.51
2017-03-18T03:03:38.400Z,9.54
2017-03-18T03:04:00.130Z,9.50
2017-03-18T03:04:21.854Z,9.48
2017-03-18T03:04:43.609Z,9.50
2017-03-18T03:05:06.399Z,9.47
2017-03-18T03:05:28.109Z,9.46
2017-03-18T03:05:59.360Z,9.52
2017-03-18T03:06:21.182Z,9.53
2017-03-18T03:06:42.891Z,9.55
2017-03-18T03:07:04.606Z,9.55
2017-03-18T03:07:26.319Z,9.55
2017-03-18T03:07:57.675Z,9.53
2017-03-18T03:08:19.401Z,9.52
2017-03-18T03:08:41.120Z,9.52
2017-03-18T03:09:07.632Z,9.50
2017-03-18T03:09:29.352Z,9.47
2017-03-18T03:10:05.406Z,9.52
2017-03-18T03:10:32.578Z,9.56
2017-03-18T03:10:54.277Z,9.55
2017-03-18T03:11:20.754Z,9.53
2017-03-18T03:11:42.473Z,9.48
2017-03-18T03:12:04.274Z,9.51
2017-03-18T03:12:26.037Z,9.50
2017-03-18T03:12:47.732Z,9.54
2017-03-18T03:13:19.010Z,9.51
2017-03-18T03:13:40.801Z,9.54
2017-03-18T03:14:07.266Z,9.55
2017-03-18T03:14:28.992Z,9.58
2017-03-18T03:14:55.557Z,9.54
2017-03-18T03:15:17.251Z,9.55
2017-03-18T03:15:38.962Z,9.54
2017-03-18T03:16:00.670Z,9.50
2017-03-18T03:16:32.020Z,9.48
2017-03-18T03:16:53.763Z,9.50
2017-03-18T03:17:15.477Z,9.53
2017-03-18T03:17:41.951Z,9.54
2017-03-18T03:18:03.768Z,9.55
2017-03-18T03:18:30.248Z,9.57
2017-03-18T03:18:51.972Z,9.58
2017-03-18T03:19:18.550Z,9.57
2017-03-18T03:19:40.276Z,9.53
2017-03-18T03:20:06.753Z,9.48
2017-03-18T03:20:28.459Z,9.53
2017-03-18T03:20:50.260Z,9.50
2017-03-18T03:21:16.753Z,9.55
2017-03-18T03:22:05.042Z,9.53
2017-03-18T03:22:26.789Z,9.50
2017-03-18T03:22:53.321Z,9.52
2017-03-18T03:23:15.076Z,9.57
2017-03-18T03:23:36.837Z,9.56
2017-03-18T03:24:08.097Z,9.56
2017-03-18T03:24:29.799Z,9.55
2017-03-18T03:24:56.283Z,9.57
2017-03-18T03:25:18.037Z,9.57
2017-03-18T03:26:25.421Z,9.55
2017-03-18T03:26:47.127Z,9.55
2017-03-18T03:27:08.875Z,9.53
2017-03-18T03:27:35.452Z,9.57
2017-03-18T03:27:57.159Z,9.60
2017-03-18T03:28:18.844Z,9.55
2017-03-18T03:28:50.189Z,9.61
2017-03-18T03:29:11.888Z,9.62
2017-03-18T03:29:33.601Z,9.62
2017-03-18T03:30:04.939Z,9.62
2017-03-18T03:30:26.692Z,9.61
2017-03-18T03:30:48.440Z,9.62
2017-03-18T03:31:19.794Z,9.54
2017-03-18T03:31:41.601Z,9.59
2017-03-18T03:32:53.751Z,9.64
2017-03-18T03:33:15.458Z,9.63
2017-03-18T03:33:41.942Z,9.66
2017-03-18T03:35:12.971Z,9.62
2017-03-18T03:35:34.830Z,9.61
2017-03-18T03:35:56.566Z,9.64
2017-03-18T03:36:23.100Z,9.58
2017-03-18T03:36:44.900Z,9.54
2017-03-18T03:37:06.601Z,9.61
2017-03-18T03:37:37.865Z,9.58
2017-03-18T03:37:59.659Z,9.57
2017-03-18T03:38:21.375Z,9.61
2017-03-18T03:38:47.861Z,9.61
2017-03-18T03:39:09.568Z,9.62
2017-03-18T03:39:40.824Z,9.57
2017-03-18T03:40:02.552Z,9.54
2017-03-18T03:40:29.150Z,9.54
2017-03-18T03:40:50.889Z,9.54
2017-03-18T03:41:20.347Z,9.52
2017-03-18T03:41:42.172Z,9.50
2017-03-18T03:42:03.893Z,9.47
2017-03-18T03:42:30.362Z,9.51
2017-03-18T03:42:52.166Z,9.49
2017-03-18T03:43:13.921Z,9.45
2017-03-18T03:43:45.170Z,9.44
2017-03-18T03:44:06.968Z,9.46
2017-03-18T03:44:38.225Z,9.50
2017-03-18T03:44:59.960Z,9.55
2017-03-18T03:45:21.746Z,9.53
2017-03-18T03:45:48.228Z,9.48
2017-03-18T03:46:09.950Z,9.47
2017-03-18T03:46:36.477Z,9.42
2017-03-18T03:46:58.226Z,9.44
2017-03-18T03:47:29.483Z,9.42
2017-03-18T03:47:51.281Z,9.39
2017-03-18T03:48:27.314Z,9.38
2017-03-18T03:48:49.625Z,9.35
2017-03-18T03:49:20.981Z,9.38
2017-03-18T03:49:42.700Z,9.38
2017-03-18T03:50:18.724Z,9.40
2017-03-18T03:50:41.089Z,9.40
2017-03-18T03:51:02.794Z,9.37
2017-03-18T03:51:29.292Z,9.39
2017-03-18T03:51:51.193Z,9.34
2017-03-18T03:52:22.450Z,9.31
2017-03-18T03:52:44.173Z,9.22
2017-03-18T03:53:05.983Z,9.25
2017-03-18T03:53:32.500Z,9.26
2017-03-18T03:53:54.221Z,9.30
2017-03-18T03:54:16.038Z,9.30
2017-03-18T03:54:42.539Z,9.33
2017-03-18T03:55:04.246Z,9.30
2017-03-18T03:55:25.956Z,9.29
2017-03-18T03:55:57.321Z,9.18
2017-03-18T03:56:19.048Z,9.18
2017-03-18T03:56:40.757Z,9.19
2017-03-18T03:57:12.119Z,9.16
2017-03-18T03:57:33.818Z,9.13
2017-03-18T03:57:55.539Z,9.11
2017-03-18T03:58:28.046Z,9.08
2017-03-18T03:58:49.748Z,9.06
2017-03-18T03:59:16.259Z,9.08
2017-03-18T03:59:38.074Z,9.08
2017-03-18T04:00:04.542Z,9.09
2017-03-18T04:00:26.281Z,9.08
2017-03-18T04:00:52.853Z,9.10
2017-03-18T04:01:14.560Z,9.08
2017-03-18T04:01:36.271Z,9.09
2017-03-18T04:01:58.016Z,9.13
2017-03-18T04:02:19.819Z,9.06
2017-03-18T04:02:41.561Z,9.08
2017-03-18T04:03:03.281Z,9.08
2017-03-18T04:03:25.037Z,9.11
2017-03-18T04:04:01.065Z,9.11
2017-03-18T04:04:28.333Z,9.08
2017-03-18T04:04:50.045Z,9.05
2017-03-18T04:05:21.389Z,9.07
2017-03-18T04:05:43.104Z,9.08
2017-03-18T04:06:19.142Z,9.03
2017-03-18T04:06:46.309Z,9.03
2017-03-18T04:07:08.050Z,9.01
2017-03-18T04:07:29.740Z,9.02
2017-03-18T04:08:01.076Z,9.07
2017-03-18T04:08:22.782Z,9.06
2017-03-18T04:08:49.258Z,8.97
2017-03-18T04:09:10.955Z,8.99
2017-03-18T04:09:37.523Z,9.03
2017-03-18T04:09:59.216Z,8.98
2017-03-18T04:10:20.922Z,9.01
2017-03-18T04:10:42.629Z,9.02
2017-03-18T04:11:04.432Z,9.01
2017-03-18T04:11:26.154Z,8.96
2017-03-18T04:11:47.860Z,8.94
2017-03-18T04:12:09.601Z,8.95
2017-03-18T04:12:36.189Z,8.98
2017-03-18T04:12:58.152Z,8.98
2017-03-18T04:13:19.843Z,8.94
2017-03-18T04:13:41.541Z,8.90
2017-03-18T04:14:03.347Z,8.94
2017-03-18T04:14:25.042Z,8.96
2017-03-18T04:14:46.730Z,8.97
2017-03-18T04:15:13.199Z,9.02
2017-03-18T04:15:34.888Z,9.05
2017-03-18T04:15:56.680Z,9.06
2017-03-18T04:16:18.467Z,9.08
2017-03-18T04:16:40.256Z,9.04
2017-03-18T04:17:11.535Z,9.02
2017-03-18T04:17:33.335Z,8.98
2017-03-18T04:18:04.593Z,8.97
2017-03-18T04:18:26.283Z,8.99
2017-03-18T04:18:48.081Z,9.01
2017-03-18T04:19:14.555Z,9.02
2017-03-18T04:19:36.242Z,9.03
2017-03-18T04:19:58.035Z,8.98
2017-03-18T04:20:19.732Z,8.96
2017-03-18T04:20:41.514Z,8.89
2017-03-18T04:21:03.313Z,8.93
2017-03-18T04:21:24.994Z,8.97
2017-03-18T04:21:46.690Z,8.96
2017-03-18T04:22:08.388Z,8.85
2017-03-18T04:22:30.129Z,8.89
2017-03-18T04:22:51.955Z,8.99
2017-03-18T04:23:23.206Z,8.99
2017-03-18T04:23:45.056Z,8.99
2017-03-18T04:24:11.521Z,8.94
2017-03-18T04:24:33.315Z,9.01
2017-03-18T04:24:59.779Z,8.95
2017-03-18T04:25:21.597Z,8.93
2017-03-18T04:25:48.095Z,8.97
2017-03-18T04:26:09.800Z,8.91
2017-03-18T04:26:36.271Z,8.95
2017-03-18T04:26:58.054Z,8.96
2017-03-18T04:27:24.533Z,9.00
2017-03-18T04:28:27.124Z,9.01
2017-03-18T04:28:48.930Z,9.04
2017-03-18T04:29:10.621Z,9.07
2017-03-18T04:29:35.065Z,9.05
2017-03-18T04:30:06.417Z,9.04
2017-03-18T04:30:28.117Z,9.01
2017-03-18T04:30:54.598Z,9.02
2017-03-18T04:31:16.281Z,9.01
2017-03-18T04:31:47.553Z,8.96
2017-03-18T04:32:09.238Z,8.96
2017-03-18T04:32:31.028Z,9.00
2017-03-18T04:32:57.509Z,9.01
2017-03-18T04:33:19.207Z,9.02
2017-03-18T04:33:40.990Z,8.98
2017-03-18T04:34:07.488Z,8.99
2017-03-18T04:34:29.177Z,8.98
2017-03-18T04:34:50.953Z,8.99
2017-03-18T04:35:17.435Z,9.03
2017-03-18T04:35:39.138Z,9.03
2017-03-18T04:36:00.834Z,9.07
2017-03-18T04:36:22.621Z,9.06
2017-03-18T04:36:44.311Z,9.05
2017-03-18T04:37:15.570Z,9.02
2017-03-18T04:37:37.354Z,9.01
2017-03-18T04:37:59.169Z,9.06
2017-03-18T04:38:20.966Z,9.00
2017-03-18T04:38:47.444Z,9.02
2017-03-18T04:39:09.148Z,9.04
2017-03-18T04:39:30.838Z,9.03
2017-03-18T04:39:52.535Z,8.99
2017-03-18T04:40:14.318Z,9.00
2017-03-18T04:40:36.000Z,8.98
2017-03-18T04:40:57.702Z,8.99
2017-03-18T04:41:19.401Z,9.03
2017-03-18T04:41:41.202Z,9.00
2017-03-18T04:42:02.917Z,8.99
2017-03-18T04:42:24.612Z,9.02
2017-03-18T04:42:46.305Z,9.03
2017-03-18T04:43:08.121Z,9.07
2017-03-18T04:43:34.631Z,9.07
2017-03-18T04:43:56.322Z,9.04
2017-03-18T04:44:18.104Z,9.01
2017-03-18T04:44:44.597Z,9.05
2017-03-18T04:45:06.298Z,9.02
2017-03-18T04:45:32.840Z,8.99
2017-03-18T04:45:54.546Z,9.01
2017-03-18T04:46:21.020Z,9.05
2017-03-18T04:46:42.712Z,9.07
2017-03-18T04:47:04.408Z,9.05
2017-03-18T04:47:26.106Z,9.02
2017-03-18T04:47:47.792Z,9.03
2017-03-18T04:48:09.507Z,9.02
2017-03-18T04:48:36.034Z,8.96
2017-03-18T04:48:57.705Z,8.98
2017-03-18T04:49:28.959Z,9.01
2017-03-18T04:49:50.652Z,9.01
2017-03-18T04:50:17.131Z,9.01
2017-03-18T04:50:38.831Z,8.97
2017-03-18T04:51:00.620Z,8.98
2017-03-18T04:51:22.327Z,8.98
2017-03-18T04:51:44.301Z,9.01
2017-03-18T04:52:15.553Z,8.99
2017-03-18T04:52:37.247Z,9.01
2017-03-18T04:52:58.942Z,8.96
2017-03-18T04:53:25.429Z,8.99
2017-03-18T04:53:47.225Z,8.96
2017-03-18T04:54:08.927Z,8.98
2017-03-18T04:54:35.395Z,9.00
2017-03-18T04:54:57.128Z,9.03
2017-03-18T04:55:23.693Z,9.02
2017-03-18T04:55:45.369Z,9.05
2017-03-18T04:56:07.166Z,9.04
2017-03-18T04:56:28.856Z,9.06
2017-03-18T04:56:50.647Z,9.06
2017-03-18T04:57:12.441Z,9.05
2017-03-18T04:57:38.905Z,9.04
2017-03-18T04:58:00.693Z,8.99
2017-03-18T04:58:27.191Z,9.03
2017-03-18T04:58:48.926Z,9.01
2017-03-18T04:59:20.183Z,9.01
2017-03-18T04:59:41.871Z,9.06
2017-03-18T05:00:03.572Z,9.03
2017-03-18T05:00:25.281Z,8.99
2017-03-18T05:00:47.078Z,9.03
2017-03-18T05:01:18.324Z,9.04
2017-03-18T05:01:40.010Z,9.02
2017-03-18T05:02:01.811Z,9.01
2017-03-18T05:02:23.518Z,9.05
2017-03-18T05:02:45.301Z,9.01
2017-03-18T05:03:07.092Z,9.00
2017-03-18T05:03:33.569Z,8.99
2017-03-18T05:03:55.374Z,9.00
2017-03-18T05:04:21.843Z,8.91
2017-03-18T05:04:43.621Z,8.93
2017-03-18T05:05:05.394Z,8.90
2017-03-18T05:05:27.101Z,8.90
2017-03-18T05:05:48.802Z,8.91
2017-03-18T05:06:10.580Z,8.96
2017-03-18T05:06:41.828Z,8.95
2017-03-18T05:07:03.521Z,8.93
2017-03-18T05:07:25.319Z,8.92
2017-03-18T05:07:47.018Z,8.91
2017-03-18T05:08:08.714Z,8.89
2017-03-18T05:08:30.403Z,8.94
2017-03-18T05:08:52.218Z,8.99
2017-03-18T05:09:13.914Z,9.02
2017-03-18T05:09:35.623Z,8.93
2017-03-18T05:10:11.667Z,8.90
2017-03-18T05:10:34.074Z,8.83
2017-03-18T05:10:55.858Z,8.88
2017-03-18T05:11:17.726Z,8.91
2017-03-18T05:11:39.423Z,8.89
2017-03-18T05:12:01.202Z,8.90
2017-03-18T05:12:27.670Z,8.90
2017-03-18T05:12:49.368Z,8.93
2017-03-18T05:13:11.143Z,8.98
2017-03-18T05:13:37.609Z,8.91
2017-03-18T05:13:59.303Z,8.87
2017-03-18T05:14:30.565Z,8.87
2017-03-18T05:14:52.376Z,8.88
2017-03-18T05:15:14.066Z,8.85
2017-03-18T05:15:40.621Z,8.86
2017-03-18T05:16:02.314Z,8.82
2017-03-18T05:16:24.002Z,8.83
2017-03-18T05:17:00.032Z,8.82
2017-03-18T05:17:27.183Z,8.85
2017-03-18T05:17:48.872Z,8.82
2017-03-18T05:18:24.895Z,8.86
2017-03-18T05:18:47.242Z,8.86
2017-03-18T05:19:08.929Z,8.84
2017-03-18T05:19:35.406Z,8.92
2017-03-18T05:19:57.224Z,8.92
2017-03-18T05:20:18.927Z,8.99
2017-03-18T05:20:45.396Z,8.93
2017-03-18T05:21:07.082Z,8.83
2017-03-18T05:21:28.863Z,8.85
2017-03-18T05:21:50.562Z,8.85
2017-03-18T05:22:12.265Z,8.88
2017-03-18T05:22:33.964Z,8.87
2017-03-18T05:22:55.746Z,8.89
2017-03-18T05:23:22.249Z,8.82
2017-03-18T05:23:43.944Z,8.78
2017-03-18T05:24:05.730Z,8.81
2017-03-18T05:24:27.433Z,8.86
2017-03-18T05:24:49.121Z,8.86
2017-03-18T05:25:10.822Z,8.87
2017-03-18T05:25:37.292Z,8.82
2017-03-18T05:25:59.076Z,8.79